createdAt,value
2018-01-30T00:01:07.055Z,5.97
2018-01-30T00:03:35.474Z,5.93
2018-01-30T00:06:03.925Z,5.92
2018-01-30T00:08:32.316Z,5.93
2018-01-30T00:11:00.710Z,5.90
2018-01-30T00:13:29.175Z,5.97
2018-01-30T00:15:57.585Z,5.97
2018-01-30T00:18:25.983Z,5.94
2018-01-30T00:20:54.684Z,5.89
2018-01-30T00:23:23.104Z,5.90
2018-01-30T00:25:51.514Z,5.91
2018-01-30T00:28:19.963Z,5.89
2018-01-30T00:30:48.411Z,5.91
2018-01-30T00:33:16.816Z,5.89
2018-01-30T00:35:45.277Z,5.86
2018-01-30T00:38:13.709Z,5.90
2018-01-30T00:40:42.118Z,5.84
2018-01-30T00:43:10.571Z,5.85
2018-01-30T00:45:38.976Z,5.89
2018-01-30T00:48:07.383Z,5.94
2018-01-30T00:50:35.819Z,5.92
2018-01-30T00:53:04.231Z,5.96
2018-01-30T00:55:32.646Z,5.92
2018-01-30T00:58:01.086Z,5.89
2018-01-30T01:00:29.509Z,5.88
2018-01-30T01:02:57.914Z,5.90
2018-01-30T01:05:26.385Z,5.85
2018-01-30T01:07:54.773Z,5.88
2018-01-30T01:10:23.171Z,5.87
2018-01-30T01:12:51.590Z,5.83
2018-01-30T01:15:20.004Z,5.77
2018-01-30T01:17:48.442Z,5.77
2018-01-30T01:20:16.905Z,5.72
2018-01-30T01:22:45.316Z,5.74
2018-01-30T01:25:13.762Z,5.72
2018-01-30T01:27:42.235Z,5.74
2018-01-30T01:30:10.660Z,5.73
2018-01-30T01:32:39.070Z,5.73
2018-01-30T01:35:07.551Z,5.72
2018-01-30T01:37:35.945Z,5.69
2018-01-30T01:40:04.672Z,5.67
2018-01-30T01:42:33.102Z,5.71
2018-01-30T01:45:01.531Z,5.66
2018-01-30T01:47:29.949Z,5.66
2018-01-30T01:49:58.621Z,5.54
2018-01-30T01:52:27.057Z,5.63
2018-01-30T01:54:55.453Z,5.62
2018-01-30T01:57:23.897Z,5.56
2018-01-30T01:59:52.290Z,5.54
2018-01-30T02:02:20.684Z,5.64
2018-01-30T02:04:49.143Z,5.61
2018-01-30T02:07:17.549Z,5.57
2018-01-30T02:09:45.965Z,5.54
2018-01-30T02:12:14.401Z,5.55
2018-01-30T02:14:42.832Z,5.56
2018-01-30T02:17:11.268Z,5.54
2018-01-30T02:19:39.745Z,5.54
2018-01-30T02:22:08.189Z,5.49
2018-01-30T02:24:36.600Z,5.52
2018-01-30T02:27:05.072Z,5.60
2018-01-30T02:29:33.469Z,5.51
2018-01-30T02:32:01.867Z,5.56
2018-01-30T02:34:30.322Z,5.56
2018-01-30T02:36:58.755Z,5.50
2018-01-30T02:39:27.153Z,5.56
2018-01-30T02:41:55.604Z,5.61
2018-01-30T02:44:24.006Z,5.54
2018-01-30T02:46:52.400Z,5.52
2018-01-30T02:49:20.840Z,5.50
2018-01-30T02:51:49.246Z,5.47
2018-01-30T02:54:17.659Z,5.50
2018-01-30T02:56:46.090Z,5.53
2018-01-30T02:59:14.504Z,5.45
2018-01-30T03:01:42.930Z,5.48
2018-01-30T03:04:11.426Z,5.47
2018-01-30T03:06:39.874Z,5.36
2018-01-30T03:09:08.286Z,5.36
2018-01-30T03:11:36.763Z,5.35
2018-01-30T03:14:05.174Z,5.32
2018-01-30T03:16:33.573Z,5.39
2018-01-30T03:19:02.050Z,5.38
2018-01-30T03:21:30.454Z,5.33
2018-01-30T03:23:58.844Z,5.32
2018-01-30T03:26:27.316Z,5.26
2018-01-30T03:28:55.705Z,5.27
2018-01-30T03:31:24.117Z,5.24
2018-01-30T03:33:52.608Z,5.23
2018-01-30T03:36:21.014Z,5.29
2018-01-30T03:38:49.414Z,5.29
2018-01-30T03:41:17.900Z,5.28
2018-01-30T03:43:46.324Z,5.26
2018-01-30T03:46:14.748Z,5.20
2018-01-30T03:48:43.203Z,5.23
2018-01-30T03:51:11.837Z,5.20
2018-01-30T03:53:40.241Z,5.20
2018-01-30T03:56:08.711Z,5.18
2018-01-30T03:58:37.144Z,5.25
2018-01-30T04:01:05.577Z,5.29
2018-01-30T04:03:34.029Z,5.27
2018-01-30T04:06:02.436Z,5.21
2018-01-30T04:08:30.906Z,5.23
2018-01-30T04:10:59.393Z,5.25
2018-01-30T04:13:27.835Z,5.24
2018-01-30T04:15:56.275Z,5.22
2018-01-30T04:18:24.745Z,5.17
2018-01-30T04:20:53.186Z,5.13
2018-01-30T04:23:21.626Z,5.14
2018-01-30T04:25:50.143Z,5.15
2018-01-30T04:28:18.563Z,5.11
2018-01-30T04:30:47.004Z,5.13
2018-01-30T04:33:15.474Z,5.14
2018-01-30T04:35:43.903Z,5.08
2018-01-30T04:38:12.315Z,5.07
2018-01-30T04:40:40.751Z,5.08
2018-01-30T04:43:09.162Z,4.98
2018-01-30T04:45:37.566Z,5.00
2018-01-30T04:48:06.012Z,4.92
2018-01-30T04:50:34.401Z,4.78
2018-01-30T04:53:02.815Z,4.80
2018-01-30T04:55:31.274Z,4.70
2018-01-30T04:58:00.056Z,4.72
2018-01-30T05:00:28.476Z,4.69
2018-01-30T05:02:56.922Z,4.67
2018-01-30T05:05:25.341Z,4.65
2018-01-30T05:07:53.739Z,4.61
2018-01-30T05:10:22.197Z,4.58
2018-01-30T05:12:50.660Z,4.56
2018-01-30T05:15:19.083Z,4.54
2018-01-30T05:17:47.557Z,4.46
2018-01-30T05:20:15.967Z,4.48
2018-01-30T05:22:44.387Z,4.46
2018-01-30T05:25:12.821Z,4.36
2018-01-30T05:27:41.218Z,4.42
2018-01-30T05:30:09.618Z,4.43
2018-01-30T05:32:38.053Z,4.43
2018-01-30T05:35:06.477Z,4.45
2018-01-30T05:37:34.884Z,4.43
2018-01-30T05:40:03.352Z,4.42
2018-01-30T05:42:31.765Z,4.38
2018-01-30T05:45:00.174Z,4.42
2018-01-30T05:47:28.630Z,4.47
2018-01-30T05:49:57.064Z,4.50
2018-01-30T05:52:25.491Z,4.49
2018-01-30T05:54:53.955Z,4.42
2018-01-30T05:57:22.369Z,4.49
2018-01-30T05:59:50.757Z,4.45
2018-01-30T06:02:19.199Z,4.49
2018-01-30T06:04:47.613Z,4.46
2018-01-30T06:07:16.052Z,4.45
2018-01-30T06:09:44.519Z,4.46
2018-01-30T06:12:12.922Z,4.43
2018-01-30T06:14:41.318Z,4.44
2018-01-30T06:17:09.778Z,4.38
2018-01-30T06:19:38.172Z,4.44
2018-01-30T06:22:06.586Z,4.42
2018-01-30T06:24:35.021Z,4.42
2018-01-30T06:27:03.426Z,4.43
2018-01-30T06:29:31.835Z,4.45
2018-01-30T06:32:00.265Z,4.42
2018-01-30T06:34:28.674Z,4.47
2018-01-30T06:36:57.077Z,4.42
2018-01-30T06:39:25.538Z,4.47
2018-01-30T06:41:53.965Z,4.46
2018-01-30T06:44:22.355Z,4.45
2018-01-30T06:46:50.819Z,4.49
2018-01-30T06:49:19.262Z,4.52
2018-01-30T06:51:47.692Z,4.48
2018-01-30T06:54:16.153Z,4.44
2018-01-30T06:56:44.555Z,4.52
2018-01-30T06:59:12.954Z,4.52
2018-01-30T07:01:41.758Z,4.43
2018-01-30T07:04:10.158Z,4.46
2018-01-30T07:06:38.560Z,4.47
2018-01-30T07:09:07.016Z,4.44
2018-01-30T07:11:35.406Z,4.41
2018-01-30T07:14:03.809Z,4.47
2018-01-30T07:16:32.290Z,4.52
2018-01-30T07:19:00.709Z,4.57
2018-01-30T07:21:29.111Z,4.56
2018-01-30T07:23:57.550Z,4.58
2018-01-30T07:26:25.951Z,4.54
2018-01-30T07:28:54.346Z,4.56
2018-01-30T07:31:22.817Z,4.63
2018-01-30T07:33:51.206Z,4.62
2018-01-30T07:36:19.612Z,4.65
2018-01-30T07:38:48.081Z,4.68
2018-01-30T07:41:16.507Z,4.69
2018-01-30T07:43:44.909Z,4.71
2018-01-30T07:46:13.389Z,4.72
2018-01-30T07:48:41.790Z,4.71
2018-01-30T07:51:10.231Z,4.72
2018-01-30T07:53:38.674Z,4.76
2018-01-30T07:56:07.104Z,4.77
2018-01-30T07:58:35.502Z,4.75
2018-01-30T08:01:03.976Z,4.75
2018-01-30T08:03:32.362Z,4.82
2018-01-30T08:06:00.807Z,4.80
2018-01-30T08:08:29.311Z,4.76
2018-01-30T08:10:57.761Z,4.70
2018-01-30T08:13:26.251Z,4.79
2018-01-30T08:15:54.717Z,4.77
2018-01-30T08:18:23.129Z,4.82
2018-01-30T08:20:51.554Z,4.82
2018-01-30T08:23:19.996Z,4.84
2018-01-30T08:25:48.419Z,4.84
2018-01-30T08:28:16.845Z,4.87
2018-01-30T08:30:45.909Z,4.83
2018-01-30T08:33:14.317Z,4.86
2018-01-30T08:35:42.740Z,4.84
2018-01-30T08:38:11.214Z,4.81
2018-01-30T08:40:39.651Z,4.92
2018-01-30T08:43:08.070Z,4.94
2018-01-30T08:45:36.536Z,4.97
2018-01-30T08:48:04.937Z,4.96
2018-01-30T08:50:33.377Z,4.96
2018-01-30T08:53:01.837Z,5.03
2018-01-30T08:55:30.256Z,4.98
2018-01-30T08:57:58.649Z,5.00
2018-01-30T09:00:27.128Z,5.06
2018-01-30T09:02:55.521Z,5.08
2018-01-30T09:05:23.934Z,5.04
2018-01-30T09:07:52.366Z,5.06
2018-01-30T09:10:20.765Z,5.13
2018-01-30T09:12:49.167Z,5.19
2018-01-30T09:15:17.623Z,5.26
2018-01-30T09:17:46.171Z,5.30
2018-01-30T09:20:14.565Z,5.31
2018-01-30T09:22:43.031Z,5.38
2018-01-30T09:25:11.433Z,5.46
2018-01-30T09:27:39.868Z,5.39
2018-01-30T09:30:08.314Z,5.45
2018-01-30T09:32:36.722Z,5.41
2018-01-30T09:35:05.154Z,5.32
2018-01-30T09:37:33.599Z,5.37
2018-01-30T09:40:02.032Z,5.31
2018-01-30T09:42:30.439Z,5.44
2018-01-30T09:44:58.888Z,5.48
2018-01-30T09:47:27.273Z,5.51
2018-01-30T09:49:55.675Z,5.55
2018-01-30T09:52:24.151Z,5.51
2018-01-30T09:54:52.576Z,5.54
2018-01-30T09:57:20.986Z,5.55
2018-01-30T09:59:49.439Z,5.50
2018-01-30T10:02:17.895Z,5.53
2018-01-30T10:04:46.328Z,5.45
2018-01-30T10:07:14.825Z,5.48
2018-01-30T10:09:43.288Z,5.48
2018-01-30T10:12:11.706Z,5.36
2018-01-30T10:14:40.147Z,5.40
2018-01-30T10:17:08.562Z,5.51
2018-01-30T10:19:36.958Z,5.52
2018-01-30T10:22:05.404Z,5.50
2018-01-30T10:24:33.814Z,5.62
2018-01-30T10:27:02.216Z,5.71
2018-01-30T10:29:30.818Z,5.69
2018-01-30T10:31:59.242Z,5.72
2018-01-30T10:34:27.675Z,5.71
2018-01-30T10:36:56.146Z,5.65
2018-01-30T10:39:24.545Z,5.70
2018-01-30T10:41:52.945Z,5.89
2018-01-30T10:44:21.537Z,5.78
2018-01-30T10:46:49.937Z,5.87
2018-01-30T10:49:18.331Z,5.87
2018-01-30T10:51:46.810Z,5.92
2018-01-30T10:54:15.244Z,5.92
2018-01-30T10:56:43.683Z,5.96
2018-01-30T10:59:12.159Z,5.97
2018-01-30T11:01:40.569Z,5.87
2018-01-30T11:04:09.870Z,5.88
2018-01-30T11:06:38.351Z,5.87
2018-01-30T11:09:06.763Z,5.88
2018-01-30T11:11:35.174Z,5.96
2018-01-30T11:14:03.638Z,6.02
2018-01-30T11:16:32.039Z,6.07
2018-01-30T11:19:00.456Z,6.20
2018-01-30T11:21:29.079Z,6.30
2018-01-30T11:23:57.495Z,6.21
2018-01-30T11:26:25.897Z,6.26
2018-01-30T11:28:54.420Z,6.30
2018-01-30T11:31:22.834Z,6.24
2018-01-30T11:33:51.341Z,6.24
2018-01-30T11:36:19.788Z,6.03
2018-01-30T11:38:48.206Z,5.99
2018-01-30T11:41:16.617Z,6.02
2018-01-30T11:43:45.074Z,6.10
2018-01-30T11:46:13.496Z,6.09
2018-01-30T11:48:41.897Z,6.11
2018-01-30T11:51:10.332Z,6.08
2018-01-30T11:53:38.745Z,6.06
2018-01-30T11:56:07.145Z,6.01
2018-01-30T11:58:35.595Z,5.97
2018-01-30T12:01:04.014Z,6.02
2018-01-30T12:03:32.407Z,6.04
2018-01-30T12:06:00.861Z,6.07
2018-01-30T12:08:29.266Z,6.14
2018-01-30T12:10:57.896Z,6.09
2018-01-30T12:13:26.591Z,6.19
2018-01-30T12:15:55.002Z,6.29
2018-01-30T12:18:23.403Z,6.23
2018-01-30T12:20:51.840Z,6.31
2018-01-30T12:23:20.306Z,6.24
2018-01-30T12:25:48.710Z,6.29
2018-01-30T12:28:17.933Z,6.40
2018-01-30T12:30:46.329Z,6.57
2018-01-30T12:33:14.722Z,6.72
2018-01-30T12:35:43.720Z,6.62
2018-01-30T12:38:12.137Z,6.46
2018-01-30T12:40:40.578Z,6.44
2018-01-30T12:43:09.186Z,6.49
2018-01-30T12:45:37.585Z,6.44
2018-01-30T12:48:07.012Z,6.44
2018-01-30T12:50:35.445Z,6.48
2018-01-30T12:53:03.844Z,6.49
2018-01-30T12:55:32.263Z,6.39
2018-01-30T12:58:01.094Z,6.38
2018-01-30T13:00:29.525Z,6.27
2018-01-30T13:02:57.945Z,6.22
2018-01-30T13:05:26.389Z,6.16
2018-01-30T13:07:54.786Z,6.16
2018-01-30T13:10:23.224Z,6.18
2018-01-30T13:12:51.690Z,6.14
2018-01-30T13:15:20.113Z,6.24
2018-01-30T13:17:48.524Z,6.27
2018-01-30T13:20:17.005Z,6.30
2018-01-30T13:22:45.415Z,6.34
2018-01-30T13:25:13.857Z,6.37
2018-01-30T13:27:42.305Z,6.40
2018-01-30T13:30:10.729Z,6.40
2018-01-30T13:32:39.280Z,6.40
2018-01-30T13:35:07.766Z,6.35
2018-01-30T13:37:36.192Z,6.51
2018-01-30T13:40:04.627Z,6.75
2018-01-30T13:42:33.108Z,6.89
2018-01-30T13:45:01.555Z,6.94
2018-01-30T13:47:29.975Z,7.00
2018-01-30T13:49:58.453Z,7.03
2018-01-30T13:52:26.857Z,7.03
2018-01-30T13:54:55.277Z,6.94
2018-01-30T13:57:23.768Z,6.94
2018-01-30T13:59:52.182Z,6.86
2018-01-30T14:02:20.589Z,6.72
2018-01-30T14:04:49.066Z,6.66
2018-01-30T14:07:17.464Z,6.54
2018-01-30T14:09:45.872Z,6.47
2018-01-30T14:12:14.342Z,6.47
2018-01-30T14:14:42.748Z,6.44
2018-01-30T14:17:11.148Z,6.40
2018-01-30T14:19:39.597Z,6.44
2018-01-30T14:22:08.030Z,6.28
2018-01-30T14:24:36.443Z,6.27
2018-01-30T14:27:04.898Z,6.40
2018-01-30T14:29:33.313Z,6.40
2018-01-30T14:32:01.791Z,6.36
2018-01-30T14:34:30.218Z,6.29
2018-01-30T14:36:58.642Z,6.27
2018-01-30T14:39:27.054Z,6.18
2018-01-30T14:41:55.512Z,6.15
2018-01-30T14:44:23.918Z,6.16
2018-01-30T14:46:52.340Z,6.16
2018-01-30T14:49:20.784Z,6.17
2018-01-30T14:51:49.445Z,6.23
2018-01-30T14:54:17.854Z,6.19
2018-01-30T14:56:46.318Z,6.19
2018-01-30T14:59:14.741Z,6.25
2018-01-30T15:01:43.156Z,6.29
2018-01-30T15:04:11.610Z,6.26
2018-01-30T15:06:40.008Z,6.12
2018-01-30T15:09:08.410Z,6.09
2018-01-30T15:11:36.844Z,6.13
2018-01-30T15:14:05.254Z,6.12
2018-01-30T15:16:33.668Z,6.09
2018-01-30T15:19:02.174Z,6.01
2018-01-30T15:21:30.578Z,5.93
2018-01-30T15:23:59.000Z,5.79
2018-01-30T15:26:27.680Z,5.78
2018-01-30T15:28:56.104Z,5.78
2018-01-30T15:31:24.508Z,5.76
2018-01-30T15:33:53.005Z,5.71
2018-01-30T15:36:21.653Z,5.72
2018-01-30T15:38:50.202Z,5.67
2018-01-30T15:41:18.672Z,5.58
2018-01-30T15:43:47.174Z,5.49
2018-01-30T15:46:15.581Z,5.44
2018-01-30T15:48:44.064Z,5.42
2018-01-30T15:51:12.461Z,5.30
2018-01-30T15:53:40.881Z,5.26
2018-01-30T15:56:09.390Z,5.22
2018-01-30T15:58:37.794Z,5.09
2018-01-30T16:01:06.203Z,5.11
2018-01-30T16:03:34.667Z,5.00
2018-01-30T16:06:03.425Z,5.04
2018-01-30T16:08:31.824Z,4.96
2018-01-30T16:11:00.293Z,4.92
2018-01-30T16:13:28.794Z,4.98
2018-01-30T16:15:57.198Z,4.91
2018-01-30T16:18:25.674Z,4.90
2018-01-30T16:20:54.119Z,4.85
2018-01-30T16:23:22.563Z,4.80
2018-01-30T16:25:51.039Z,4.74
2018-01-30T16:28:19.465Z,4.69
2018-01-30T16:30:47.911Z,4.68
2018-01-30T16:33:16.395Z,4.69
2018-01-30T16:35:44.826Z,4.67
2018-01-30T16:38:20.318Z,4.63
2018-01-30T16:40:48.748Z,4.59
2018-01-30T16:43:17.186Z,4.57
2018-01-30T16:45:45.637Z,4.46
2018-01-30T16:48:14.069Z,4.44
2018-01-30T16:50:42.487Z,4.35
2018-01-30T16:53:10.992Z,4.46
2018-01-30T16:55:39.408Z,4.36
2018-01-30T16:58:07.822Z,4.30
2018-01-30T17:00:36.294Z,4.31
2018-01-30T17:03:04.744Z,4.30
2018-01-30T17:05:33.182Z,4.20
2018-01-30T17:08:01.657Z,4.14
2018-01-30T17:10:30.068Z,4.17
2018-01-30T17:12:58.489Z,4.14
2018-01-30T17:15:26.946Z,4.15
2018-01-30T17:17:55.342Z,4.10
2018-01-30T17:20:23.771Z,4.08
2018-01-30T17:22:52.234Z,4.05
2018-01-30T17:25:20.681Z,4.11
2018-01-30T17:27:49.626Z,4.03
2018-01-30T17:30:18.098Z,4.00
2018-01-30T17:32:46.587Z,3.96
2018-01-30T17:35:14.991Z,3.87
2018-01-30T17:37:43.456Z,3.85
2018-01-30T17:40:11.908Z,3.83
2018-01-30T17:42:40.968Z,3.83
2018-01-30T17:45:09.430Z,3.81
2018-01-30T17:47:37.842Z,3.78
2018-01-30T17:50:06.313Z,3.80
2018-01-30T17:52:34.734Z,3.76
2018-01-30T17:55:03.142Z,3.78
2018-01-30T17:57:31.570Z,3.80
2018-01-30T18:00:00.220Z,3.87
2018-01-30T18:02:28.906Z,3.78
2018-01-30T18:04:57.353Z,3.75
2018-01-30T18:07:25.839Z,3.80
2018-01-30T18:09:54.282Z,3.77
2018-01-30T18:12:22.700Z,3.73
2018-01-30T18:14:51.186Z,3.69
2018-01-30T18:17:19.601Z,3.66
2018-01-30T18:19:48.007Z,3.63
2018-01-30T18:22:16.460Z,3.51
2018-01-30T18:24:44.861Z,3.45
2018-01-30T18:27:13.266Z,3.48
2018-01-30T18:29:41.726Z,3.47
2018-01-30T18:32:10.144Z,3.45
2018-01-30T18:34:38.578Z,3.46
2018-01-30T18:37:07.035Z,3.50
2018-01-30T18:39:35.578Z,3.50
2018-01-30T18:42:04.006Z,3.48
2018-01-30T18:44:32.512Z,3.52
2018-01-30T18:47:00.925Z,3.53
2018-01-30T18:49:29.337Z,3.52
2018-01-30T18:51:57.864Z,3.49
2018-01-30T18:54:26.275Z,3.46
2018-01-30T18:56:54.703Z,3.43
2018-01-30T18:59:23.152Z,3.45
2018-01-30T19:01:51.586Z,3.44
2018-01-30T19:04:20.003Z,3.38
2018-01-30T19:06:48.582Z,3.38
2018-01-30T19:09:19.182Z,3.37
2018-01-30T19:11:47.611Z,3.40
2018-01-30T19:14:16.055Z,3.42
2018-01-30T19:16:44.466Z,3.41
2018-01-30T19:19:12.885Z,3.36
2018-01-30T19:21:41.397Z,3.35
2018-01-30T19:24:09.842Z,3.35
2018-01-30T19:26:38.286Z,3.35
2018-01-30T19:29:06.753Z,3.33
2018-01-30T19:31:35.191Z,3.32
2018-01-30T19:34:03.600Z,3.27
2018-01-30T19:36:32.251Z,3.32
2018-01-30T19:39:00.660Z,3.35
2018-01-30T19:41:29.072Z,3.35
2018-01-30T19:43:57.560Z,3.35
2018-01-30T19:46:25.960Z,3.44
2018-01-30T19:48:54.361Z,3.43
2018-01-30T19:51:22.803Z,3.49
2018-01-30T19:53:51.210Z,3.48
2018-01-30T19:56:19.666Z,3.48
2018-01-30T19:58:48.187Z,3.44
2018-01-30T20:01:16.608Z,3.39
2018-01-30T20:03:45.035Z,3.39
2018-01-30T20:06:13.662Z,3.44
2018-01-30T20:08:42.090Z,3.40
2018-01-30T20:11:10.498Z,3.44
2018-01-30T20:13:38.981Z,3.45
2018-01-30T20:16:07.388Z,3.48
2018-01-30T20:18:35.827Z,3.51
2018-01-30T20:21:04.297Z,3.53
2018-01-30T20:23:32.731Z,3.45
2018-01-30T20:26:01.132Z,3.53
2018-01-30T20:28:29.637Z,3.50
2018-01-30T20:30:58.043Z,3.50
2018-01-30T20:33:26.451Z,3.57
2018-01-30T20:35:54.903Z,3.59
2018-01-30T20:38:23.354Z,3.51
2018-01-30T20:40:51.761Z,3.48
2018-01-30T20:43:20.244Z,3.49
2018-01-30T20:45:48.665Z,3.50
2018-01-30T20:48:17.179Z,3.44
2018-01-30T20:50:45.650Z,3.44
2018-01-30T20:53:14.100Z,3.35
2018-01-30T20:55:42.510Z,3.33
2018-01-30T20:58:10.977Z,3.40
2018-01-30T21:00:39.400Z,3.36
2018-01-30T21:03:07.835Z,3.33
2018-01-30T21:05:36.330Z,3.28
2018-01-30T21:08:04.769Z,3.25
2018-01-30T21:10:33.183Z,3.28
2018-01-30T21:13:01.650Z,3.24
2018-01-30T21:15:30.091Z,3.21
2018-01-30T21:17:58.491Z,3.22
2018-01-30T21:20:26.915Z,3.25
2018-01-30T21:22:55.354Z,3.28
2018-01-30T21:25:23.786Z,3.31
2018-01-30T21:27:52.225Z,3.27
2018-01-30T21:30:20.641Z,3.29
2018-01-30T21:32:49.049Z,3.29
2018-01-30T21:35:17.661Z,3.25
2018-01-30T21:37:46.066Z,3.28
2018-01-30T21:40:14.469Z,3.29
2018-01-30T21:42:42.925Z,3.34
2018-01-30T21:45:11.362Z,3.32
2018-01-30T21:47:39.768Z,3.40
2018-01-30T21:50:08.233Z,3.36
2018-01-30T21:52:36.717Z,3.38
2018-01-30T21:55:05.126Z,3.39
2018-01-30T21:57:33.585Z,3.36
2018-01-30T22:00:01.986Z,3.40
2018-01-30T22:02:30.463Z,3.34
2018-01-30T22:04:58.950Z,3.34
2018-01-30T22:07:27.360Z,3.39
2018-01-30T22:09:55.779Z,3.42
2018-01-30T22:12:24.241Z,3.50
2018-01-30T22:14:52.678Z,3.44
2018-01-30T22:17:21.082Z,3.45
2018-01-30T22:19:49.541Z,3.44
2018-01-30T22:22:17.957Z,3.45
2018-01-30T22:24:46.372Z,3.48
2018-01-30T22:27:14.809Z,3.48
2018-01-30T22:29:43.257Z,3.53
2018-01-30T22:32:11.660Z,3.48
2018-01-30T22:34:40.110Z,3.43
2018-01-30T22:37:08.522Z,3.43
2018-01-30T22:39:36.957Z,3.40
2018-01-30T22:42:05.390Z,3.41
2018-01-30T22:44:33.777Z,3.37
2018-01-30T22:47:02.200Z,3.41
